Not for real navigation | The accuracy of this data is not assured | See disclaimer for more information
ICAO NAME COUNTRY WIND Kt GUST Kt VIS TEMP/DEW BARO
K2D5 Oakes Municipal Airport ND United States 27 36 400 -15/-16 29.87
K2D5 180655Z AUTO 32027G36KT 0.25SM -SN M15/M16 A2987 RMK AO2
K46D Carrington Municipal Airport ND United States 26 36 400 -17/-20 29.94
K46D 180655Z AUTO 31026G36KT 0.25SM -SN OVC001 M17/M20 A2994 RMK AO2
K5H4 Harvey Municipal Airport ND United States 27 36 400 -19/-21 29.98
K5H4 180655Z AUTO 31027G36KT 0.25SM -SN OVC002 M19/M21 A2998 RMK AO2
KHON HURON REGIONAL AIRPORT SD United States 35 45 400 -14/-15 29.92
KHON 180655Z AUTO 32035G45KT 0.25SM -SN FZFG VV007 M14/M15 A2992 RMK AO2 PK WND 31051/0602 SLP154 P0001 T11391150 $
KYKN Yankton, Chan Gurney Municipal SD United States 34 44 400 -9/-10 29.87
KYKN 180656Z AUTO 30034G44KT 0.25SM +SN FZFG FEW005 OVC019 M09/M10 A2987 RMK AO2 PK WND 30051/0646 WSHFT 0555 UPE01SNB01 SLP147 P0000 T10891100 FZRANO

Show more

Close Menu